Accueil
METAR-TAF:

METAR-TAF

Aéroports :

Tarvisio, Italie

latitude: 46-30N, longitude: 013-35E, altitude: 777 m

Observation

Le bulletin a été fait il y a 26 minutes, à 16:55 UTC
Vent 2 kt de est
Température 2°C
Humidité 87%
Pression 1001 hPa
Visibilité: 1000 m
Ciel couvert à une hauteur de 1000 ft
pluie, brume

METAR: LIVO 051655Z 08002KT 1000 RA BR OVC010 02/00 Q1001 RMK OVC VIS MIN 1000

Heure: 18:21 (17:21 UTC)


TAF: absent

Observations et prévisions météorologiques de plus de 4000 aéroports (messages METAR et TAF).

Les stations disponibles sont représentées par des disques jaunes et rouges sur la carte.

Passer la souris dessus pour voir le nom de la station.

Cliquer dessus pour voir les observations et prévisions météorologiques.

Pour changer de carte: cliquez sur les boutons verts avec une croix noire pour zoomer, sur le bouton vert avec un tiret pour effectuer un zoom arrière, ou sur les flèches vertes pour les cartes adjacentes.


METAR-TAF: